Time;durP1;ratioP1;P1;durP2;ratioP2;P2;SDS_P1;SDS_P2;PMS_P1;PMS_P2;Temp;Humidity;BMP_temperature;BMP_pressure;BME280_temperature;BME280_humidity;BME280_pressure;Samples;Min_cycle;Max_cycle;Signal;HPM_P1;HPM_P2
2023/01/14 00:01:31;;;;;;;8.25;2.78;;;7.10;90.40;;;6.28;80.38;100519.28;5008032;28;20405;-71
2023/01/14 00:03:59;;;;;;;7.25;2.95;;;7.10;90.70;;;6.28;79.96;100517.47;5008312;28;20459;-71
2023/01/14 00:06:31;;;;;;;9.18;2.92;;;7.20;90.70;;;6.28;80.31;100524.59;5007833;28;20499;-71
2023/01/14 00:09:02;;;;;;;9.18;2.75;;;7.20;90.70;;;6.30;79.80;100528.78;5007885;28;20882;-71
2023/01/14 00:11:50;;;;;;;8.80;2.65;;;7.20;90.50;;;6.30;79.89;100520.81;5007832;28;20490;-72
2023/01/14 00:14:21;;;;;;;8.88;2.97;;;7.10;90.50;;;6.29;79.84;100527.13;5007627;28;20418;-71
2023/01/14 00:16:53;;;;;;;9.18;3.33;;;7.10;90.40;;;6.33;79.60;100528.53;5007474;28;20706;-71
2023/01/14 00:19:23;;;;;;;8.53;3.10;;;7.20;90.30;;;6.29;79.74;100537.75;5007702;28;20417;-71
2023/01/14 00:21:54;;;;;;;9.33;3.93;;;7.20;90.40;;;6.28;79.74;100540.56;5011578;28;20413;-71
2023/01/14 00:24:24;;;;;;;10.45;6.50;;;7.10;90.50;;;6.28;79.56;100538.72;5011863;28;20824;-71
2023/01/14 00:26:55;;;;;;;10.25;5.82;;;7.20;90.80;;;6.29;79.50;100542.25;5011600;28;20404;-71
2023/01/14 00:29:26;;;;;;;9.43;3.30;;;7.20;90.40;;;6.28;79.53;100541.41;5011590;28;20419;-71
2023/01/14 00:31:57;;;;;;;9.75;2.97;;;7.10;90.30;;;6.26;79.22;100551.34;5005590;28;20856;-72
2023/01/14 00:34:28;;;;;;;8.52;3.05;;;7.10;90.20;;;6.25;79.51;100559.44;5011038;28;20943;-72
2023/01/14 00:36:57;;;;;;;7.97;3.43;;;7.10;90.30;;;6.20;79.61;100559.84;5010841;28;20420;-71
2023/01/14 00:39:26;;;;;;;8.23;4.50;;;7.10;90.30;;;6.21;79.20;100566.00;5011317;28;20412;-71
2023/01/14 00:41:54;;;;;;;6.47;2.80;;;7.10;90.30;;;6.22;79.47;100565.88;5011068;28;20471;-71
2023/01/14 00:44:23;;;;;;;7.47;2.60;;;7.10;90.30;;;6.25;78.98;100568.25;5011310;28;20765;-71
2023/01/14 00:46:53;;;;;;;9.30;2.70;;;7.10;90.10;;;6.28;79.05;100567.13;5011102;28;20412;-71
2023/01/14 00:49:24;;;;;;;8.52;2.92;;;7.10;90.10;;;6.30;79.00;100560.69;5011298;28;20495;-71
2023/01/14 00:51:53;;;;;;;6.47;2.97;;;7.20;90.00;;;6.31;78.88;100561.53;5011307;28;20424;-71
2023/01/14 00:54:21;;;;;;;8.82;3.83;;;7.20;90.00;;;6.34;78.67;100551.47;5010858;28;20417;-71
2023/01/14 00:56:49;;;;;;;6.22;3.10;;;7.20;90.00;;;6.33;78.81;100555.13;5010079;28;20412;-71
2023/01/14 00:59:20;;;;;;;6.38;2.60;;;7.20;89.70;;;6.35;78.65;100565.59;5010903;28;20412;-71
2023/01/14 01:01:54;;;;;;;8.05;3.78;;;7.20;89.70;;;6.32;78.69;100566.72;5010983;28;20404;-72
2023/01/14 01:04:23;;;;;;;8.10;3.00;;;7.20;89.80;;;6.32;78.60;100572.06;5010613;28;20416;-72
2023/01/14 01:06:52;;;;;;;7.28;3.42;;;7.20;89.50;;;6.31;78.54;100569.50;5010643;28;20417;-72
2023/01/14 01:09:20;;;;;;;7.95;2.88;;;7.20;89.60;;;6.35;77.86;100568.28;5011094;28;20412;-72
2023/01/14 01:11:48;;;;;;;6.97;2.97;;;7.10;89.30;;;6.30;78.31;100581.97;5010478;28;20431;-71
2023/01/14 01:14:16;;;;;;;6.78;2.60;;;7.20;89.40;;;6.30;78.30;100586.47;5010681;28;20436;-71
2023/01/14 01:16:44;;;;;;;7.68;5.30;;;7.20;89.50;;;6.29;78.45;100588.28;5010128;28;20407;-71
2023/01/14 01:19:12;;;;;;;7.75;2.80;;;7.10;89.40;;;6.29;78.41;100580.31;5010648;28;20420;-71
2023/01/14 01:21:42;;;;;;;6.60;2.50;;;7.10;89.40;;;6.29;78.41;100585.63;5010706;28;20405;-71
2023/01/14 01:24:10;;;;;;;7.05;2.80;;;7.10;89.30;;;6.29;78.05;100588.28;5010749;28;20423;-71
2023/01/14 01:26:39;;;;;;;7.30;4.20;;;7.20;89.30;;;6.25;78.36;100588.69;5010529;28;20412;-71
2023/01/14 01:29:07;;;;;;;6.88;2.50;;;7.10;89.70;;;6.21;78.26;100582.78;5010299;28;20501;-71
2023/01/14 01:31:35;;;;;;;7.25;4.18;;;7.10;89.30;;;6.21;78.50;100585.44;5010010;28;21032;-71
2023/01/14 01:34:03;;;;;;;8.65;3.38;;;7.10;89.50;;;6.17;78.44;100596.47;5010405;28;20432;-71
2023/01/14 01:36:31;;;;;;;8.50;4.95;;;7.10;89.50;;;6.16;78.21;100595.66;5009975;28;20463;-71
2023/01/14 01:39:00;;;;;;;6.75;3.00;;;7.00;89.40;;;6.19;78.14;100600.72;5010188;28;20412;-71
2023/01/14 01:41:32;;;;;;;5.55;3.30;;;7.00;90.00;;;6.22;78.13;100603.09;5010236;28;20486;-71
2023/01/14 01:44:07;;;;;;;5.55;3.22;;;7.10;89.20;;;6.21;78.23;100604.06;5010136;28;20417;-71
2023/01/14 01:46:37;;;;;;;6.75;3.20;;;7.10;89.00;;;6.15;78.41;100603.75;5010241;28;20420;-71
2023/01/14 01:49:12;;;;;;;7.07;2.45;;;7.00;89.10;;;6.10;78.36;100612.13;5009932;28;20564;-71
2023/01/14 01:51:47;;;;;;;8.43;2.57;;;6.90;89.40;;;6.06;78.96;100622.19;5009408;28;20502;-71
2023/01/14 01:54:19;;;;;;;7.03;2.60;;;7.00;89.80;;;6.03;78.80;100608.31;5009957;28;20929;-71
2023/01/14 01:56:49;;;;;;;9.03;2.73;;;6.90;89.90;;;6.02;78.95;100614.63;5009767;28;20413;-72
2023/01/14 01:59:22;;;;;;;9.60;2.78;;;6.90;90.00;;;6.03;78.94;100626.94;5009750;28;20404;-72
2023/01/14 02:01:53;;;;;;;8.32;2.63;;;6.90;90.00;;;5.96;79.09;100629.28;5009839;28;20409;-72
2023/01/14 02:04:21;;;;;;;8.10;3.00;;;6.80;90.00;;;5.95;78.97;100629.44;5009288;28;21145;-72
2023/01/14 02:06:50;;;;;;;9.63;2.80;;;6.80;90.10;;;5.93;79.41;100631.38;5009004;28;20497;-72
2023/01/14 02:09:21;;;;;;;7.28;2.65;;;6.80;90.20;;;5.89;79.71;100629.97;5009560;28;20950;-72
2023/01/14 02:12:12;;;;;;;7.75;3.03;;;6.80;90.30;;;5.86;79.70;100628.41;5009588;28;20475;-72
2023/01/14 02:15:04;;;;;;;6.70;2.60;;;6.70;90.40;;;5.88;79.47;100633.59;5009449;28;20409;-72
2023/01/14 02:17:46;;;;;;;9.23;3.00;;;6.70;90.30;;;5.88;79.50;100642.41;5009325;28;20412;-72
2023/01/14 02:20:26;;;;;;;9.37;3.10;;;6.70;90.30;;;5.88;79.26;100641.56;5009756;28;20415;-71
2023/01/14 02:23:45;;;;;;;9.13;2.80;;;6.80;90.30;;;5.86;79.64;100654.13;5009565;28;20411;-71
2023/01/14 02:26:54;;;;;;;9.73;3.17;;;6.70;90.30;;;5.83;79.52;100641.06;5010131;28;20401;-71
2023/01/14 02:29:59;;;;;;;8.27;3.00;;;6.70;90.40;;;5.81;79.73;100643.03;5009458;28;20438;-71
2023/01/14 02:32:36;;;;;;;8.40;2.95;;;6.70;90.40;;;5.85;79.42;100649.78;5009370;28;20428;-71
2023/01/14 02:35:22;;;;;;;9.40;2.97;;;6.70;90.30;;;5.83;79.67;100651.69;5009364;28;20420;-71
2023/01/14 02:38:00;;;;;;;8.02;2.67;;;6.70;90.30;;;5.84;79.46;100656.06;5009542;28;20409;-71
2023/01/14 02:40:33;;;;;;;10.65;3.08;;;6.70;90.40;;;5.84;79.46;100659.56;5009645;28;20889;-71
2023/01/14 02:46:05;;;;;;;10.95;3.10;;;6.70;90.40;;;5.85;79.45;100666.56;5008892;28;20862;-71
2023/01/14 02:48:36;;;;;;;12.68;3.47;;;6.80;90.40;;;5.85;79.75;100666.56;5009546;28;20405;-71
2023/01/14 02:51:05;;;;;;;10.50;3.30;;;6.70;90.40;;;5.82;80.03;100660.66;5009390;28;20413;-71
2023/01/14 02:53:33;;;;;;;10.73;3.30;;;6.70;90.50;;;5.81;80.11;100653.66;5012514;28;21074;-71
2023/01/14 02:56:02;;;;;;;11.00;3.28;;;6.70;90.60;;;5.80;80.02;100658.13;5028580;28;20399;-71
2023/01/14 02:59:18;;;;;;;9.35;3.50;;;6.70;90.70;;;5.82;80.43;100660.66;5028628;28;20417;-71
2023/01/14 03:02:21;;;;;;;10.68;3.70;;;6.70;90.80;;;5.83;80.48;100657.00;4967368;28;20508;-71
2023/01/14 03:05:18;;;;;;;11.07;3.53;;;6.60;90.80;;;5.87;80.66;100651.34;4938399;28;20416;-71
2023/01/14 03:07:56;;;;;;;14.48;3.80;;;6.70;90.90;;;5.87;81.40;100647.84;5013118;28;20416;-71
2023/01/14 03:10:34;;;;;;;11.13;3.33;;;6.70;91.20;;;5.87;81.77;100646.03;5008461;28;20423;-71
2023/01/14 03:13:14;;;;;;;10.73;3.20;;;6.80;91.40;;;5.85;82.49;100644.47;5008940;28;20439;-71
2023/01/14 03:15:50;;;;;;;11.70;3.67;;;6.70;91.70;;;5.82;82.15;100645.53;5008406;28;20405;-71
2023/01/14 03:18:27;;;;;;;12.95;3.88;;;6.70;91.80;;;5.80;82.87;100642.19;5008614;28;20544;-71
2023/01/14 03:21:03;;;;;;;13.10;4.03;;;6.70;91.90;;;5.81;82.60;100648.34;5008282;28;20908;-71
2023/01/14 03:23:37;;;;;;;11.43;3.88;;;6.70;91.90;;;5.84;82.25;100653.41;5012565;28;20771;-71
2023/01/14 03:26:10;;;;;;;13.93;3.83;;;6.70;91.70;;;5.88;81.89;100661.00;5027955;28;20507;-72
2023/01/14 03:28:47;;;;;;;12.77;3.60;;;6.70;91.60;;;5.88;81.55;100657.50;5028388;28;20410;-72
2023/01/14 03:31:21;;;;;;;15.73;4.00;;;6.70;91.50;;;5.92;81.51;100662.44;5027841;28;20825;-72
2023/01/14 03:33:57;;;;;;;10.85;3.30;;;6.80;91.30;;;5.95;80.96;100662.16;5028260;28;20454;-72
2023/01/14 03:36:30;;;;;;;12.93;3.58;;;6.90;91.20;;;5.98;81.22;100655.75;5027871;28;20933;-72
2023/01/14 03:39:04;;;;;;;12.52;4.00;;;6.80;91.10;;;6.01;80.73;100660.78;5028030;28;20411;-72
2023/01/14 03:44:27;;;;;;;12.75;3.97;;;6.90;90.90;;;6.07;80.37;100665.56;5028290;28;20407;-72
2023/01/14 03:46:56;;;;;;;11.75;3.80;;;6.90;90.70;;;6.11;79.95;100667.81;5027763;28;21041;-72
2023/01/14 03:49:26;;;;;;;14.68;4.32;;;6.90;90.70;;;6.08;80.24;100665.44;5028058;28;20415;-72
2023/01/14 03:52:04;;;;;;;12.93;4.50;;;7.00;90.80;;;6.08;80.07;100669.91;5027886;28;21074;-72
2023/01/14 03:54:43;;;;;;;10.85;3.80;;;7.00;90.80;;;6.12;79.99;100666.00;5016941;28;20432;-72
2023/01/14 03:57:19;;;;;;;13.93;4.53;;;7.00;90.60;;;6.11;80.43;100670.47;5012187;28;20415;-72
2023/01/14 03:59:58;;;;;;;13.20;3.80;;;7.00;90.70;;;6.13;80.21;100667.69;5012467;28;20411;-72
2023/01/14 04:02:28;;;;;;;12.70;4.28;;;7.00;90.60;;;6.10;80.48;100667.94;5012405;28;20408;-72
2023/01/14 04:05:01;;;;;;;16.05;4.30;;;6.90;90.80;;;6.15;79.80;100670.22;5012561;28;20873;-72
2023/01/14 04:07:29;;;;;;;13.27;4.30;;;7.00;90.50;;;6.14;80.03;100666.72;5011718;28;20903;-72
2023/01/14 04:09:57;;;;;;;11.63;4.43;;;7.00;90.60;;;6.20;79.47;100679.47;5012285;28;20404;-72
2023/01/14 04:12:25;;;;;;;13.77;4.30;;;7.00;90.30;;;6.18;79.70;100676.09;5020389;28;20411;-72
2023/01/14 04:17:39;;;;;;;15.15;4.65;;;7.10;90.40;;;6.18;79.76;100676.09;5031287;28;20410;-71
2023/01/14 04:20:10;;;;;;;14.55;4.60;;;7.10;90.50;;;6.18;79.88;100673.44;5031765;28;20410;-72
2023/01/14 04:22:38;;;;;;;13.93;4.82;;;7.00;90.40;;;6.19;79.60;100671.63;5021302;28;20805;-72
2023/01/14 04:25:08;;;;;;;14.30;5.03;;;7.00;90.40;;;6.19;79.84;100666.31;5011121;28;20416;-71
2023/01/14 04:27:36;;;;;;;16.23;5.05;;;7.00;90.40;;;6.18;79.86;100676.09;5011165;28;20849;-71
2023/01/14 04:30:06;;;;;;;17.02;5.93;;;7.00;90.40;;;6.16;79.83;100675.41;5011420;28;20419;-71
2023/01/14 04:32:34;;;;;;;14.68;5.68;;;7.00;90.60;;;6.16;79.89;100667.44;5011313;28;20413;-72
2023/01/14 04:35:02;;;;;;;18.85;6.78;;;7.00;90.50;;;6.15;79.77;100673.72;5010957;28;20943;-72
2023/01/14 04:37:32;;;;;;;15.98;6.20;;;7.00;90.50;;;6.17;79.52;100666.44;5008424;28;20593;-72
2023/01/14 04:40:00;;;;;;;15.63;5.95;;;7.00;90.30;;;6.18;79.81;100678.75;5011190;28;20416;-72
2023/01/14 04:42:28;;;;;;;18.20;6.88;;;7.10;90.40;;;6.21;79.37;100677.66;5011051;28;20413;-72
2023/01/14 04:44:58;;;;;;;20.63;7.05;;;7.10;90.30;;;6.19;79.39;100671.63;5011025;28;20409;-72
2023/01/14 04:47:27;;;;;;;17.40;6.87;;;7.10;90.30;;;6.15;79.88;100665.75;5010497;28;20408;-72
2023/01/14 04:49:56;;;;;;;17.92;6.95;;;7.00;90.40;;;6.17;79.77;100673.56;5010888;28;20424;-72
2023/01/14 04:52:24;;;;;;;24.43;7.50;;;7.00;90.40;;;6.20;79.07;100682.13;5010801;28;20415;-72
2023/01/14 04:54:54;;;;;;;19.47;7.17;;;7.10;90.20;;;6.19;79.50;100675.13;5011231;28;20832;-72
2023/01/14 04:57:22;;;;;;;17.77;6.70;;;7.00;90.20;;;6.20;79.39;100671.47;5008296;28;20417;-72
2023/01/14 04:59:50;;;;;;;18.60;7.20;;;7.10;90.20;;;6.18;79.60;100672.59;5010710;28;20416;-72
2023/01/14 05:02:18;;;;;;;19.13;7.20;;;7.00;90.30;;;6.18;79.56;100672.59;5009767;28;21147;-72
2023/01/14 05:04:46;;;;;;;19.20;7.32;;;7.00;90.30;;;6.18;79.49;100676.09;5011830;28;20432;-72
2023/01/14 05:07:14;;;;;;;19.33;6.60;;;7.00;90.20;;;6.19;79.43;100679.59;5009702;28;20920;-72
2023/01/14 05:09:42;;;;;;;21.45;7.63;;;7.10;90.30;;;6.18;79.33;100670.78;5026997;28;20422;-72
2023/01/14 05:12:12;;;;;;;20.85;7.03;;;7.00;90.20;;;6.20;79.41;100671.47;5030724;28;20407;-72
2023/01/14 05:14:40;;;;;;;22.48;7.70;;;7.10;90.20;;;6.23;79.24;100665.94;5030014;28;20418;-72
2023/01/14 05:17:08;;;;;;;21.30;6.95;;;7.10;90.10;;;6.23;79.25;100665.09;5030397;28;20411;-72
2023/01/14 05:19:36;;;;;;;20.83;7.20;;;7.10;90.20;;;6.23;79.47;100659.75;5030473;28;20452;-72
2023/01/14 05:22:04;;;;;;;22.35;7.43;;;7.00;90.20;;;6.23;79.33;100667.75;5013236;28;20804;-72
2023/01/14 05:24:32;;;;;;;24.40;7.28;;;7.10;90.20;;;6.25;79.07;100663.97;5010700;28;20412;-72
2023/01/14 05:27:00;;;;;;;23.30;7.70;;;7.10;90.10;;;6.24;79.41;100670.25;5010494;28;20415;-72
2023/01/14 05:29:30;;;;;;;18.38;6.68;;;7.10;90.30;;;6.23;79.63;100665.94;5010901;28;20409;-72
2023/01/14 05:31:58;;;;;;;19.85;6.93;;;7.10;90.30;;;6.27;78.59;100662.00;5010032;28;20413;-72
2023/01/14 05:34:26;;;;;;;20.35;6.68;;;7.10;90.00;;;6.27;78.68;100654.03;5010630;28;20455;-72
2023/01/14 05:36:54;;;;;;;19.33;6.28;;;7.10;89.70;;;6.29;78.55;100659.22;5010585;28;20482;-72
2023/01/14 05:39:23;;;;;;;18.50;6.30;;;7.20;89.70;;;6.28;78.75;100655.72;5010566;28;20432;-72
2023/01/14 05:47:23;;;;;;;23.30;6.93;;;7.10;89.70;;;6.25;78.84;100658.66;5009853;28;20963;-71
2023/01/14 05:49:51;;;;;;;22.42;6.53;;;7.10;89.70;;;6.25;78.65;100657.78;5010466;28;20552;-70
2023/01/14 05:52:19;;;;;;;19.73;6.20;;;7.10;89.70;;;6.29;77.82;100649.44;5010055;28;20435;-71
2023/01/14 05:54:48;;;;;;;23.83;6.22;;;7.20;88.90;;;6.30;77.62;100639.63;5010114;28;20925;-71
2023/01/14 05:57:16;;;;;;;20.87;6.10;;;7.10;88.60;;;6.26;77.69;100644.38;5009902;28;20411;-71
2023/01/14 05:59:45;;;;;;;20.85;6.03;;;7.10;88.80;;;6.24;77.56;100635.69;5010581;28;20408;-71
2023/01/14 06:07:52;;;;;;;23.70;6.50;;;7.00;89.30;;;6.13;78.33;100626.00;5009137;28;20416;-71
2023/01/14 06:10:24;;;;;;;23.17;7.03;;;7.00;89.40;;;6.11;78.39;100629.78;5010007;28;20839;-71
2023/01/14 06:12:58;;;;;;;18.83;5.72;;;7.00;89.60;;;6.10;78.61;100633.41;5009896;28;21047;-71
2023/01/14 06:15:33;;;;;;;21.35;6.05;;;7.00;89.80;;;6.10;78.48;100628.06;5009536;28;20500;-71
2023/01/14 06:18:15;;;;;;;21.92;6.32;;;7.00;89.60;;;6.10;78.70;100628.06;5008736;28;20747;-71
2023/01/14 06:20:44;;;;;;;24.05;6.80;;;7.00;89.70;;;6.11;78.27;100630.63;5005881;28;20881;-71
2023/01/14 06:23:13;;;;;;;24.65;6.28;;;7.00;89.50;;;6.11;78.23;100619.13;5009317;28;20947;-71
2023/01/14 06:25:44;;;;;;;23.00;6.00;;;7.00;89.40;;;6.13;77.77;100623.34;5009412;28;20409;-71
2023/01/14 06:28:13;;;;;;;23.10;5.97;;;7.00;88.90;;;6.13;77.41;100625.16;5009809;28;20417;-71
2023/01/14 06:30:44;;;;;;;23.30;6.63;;;7.00;88.50;;;6.15;77.30;100631.19;5006819;28;20443;-71
2023/01/14 06:33:12;;;;;;;26.00;6.43;;;7.00;88.40;;;6.14;77.71;100624.19;5008812;28;20779;-71
2023/01/14 06:35:45;;;;;;;19.13;6.10;;;7.00;88.50;;;6.18;77.47;100620.28;5008908;28;20439;-71
2023/01/14 06:38:14;;;;;;;20.20;6.40;;;7.00;88.10;;;6.15;77.03;100615.25;5008936;28;20408;-71
2023/01/14 06:40:42;;;;;;;22.67;6.25;;;7.00;88.20;;;6.20;76.71;100617.50;5009052;28;20420;-71
2023/01/14 06:43:11;;;;;;;17.88;5.50;;;7.10;87.70;;;6.20;76.52;100617.50;5009090;28;20420;-72
2023/01/14 06:45:39;;;;;;;23.73;6.03;;;7.10;87.70;;;6.19;76.72;100616.66;5008716;28;20400;-72
2023/01/14 06:48:09;;;;;;;22.13;6.28;;;7.00;87.60;;;6.18;76.70;100612.31;5009268;28;20413;-72
2023/01/14 06:50:37;;;;;;;21.73;5.70;;;7.00;87.60;;;6.18;76.47;100607.00;5008961;28;20409;-72
2023/01/14 06:53:05;;;;;;;20.55;5.60;;;7.00;87.40;;;6.15;76.35;100604.59;5008897;28;20413;-72
2023/01/14 06:55:33;;;;;;;18.85;5.80;;;7.00;87.40;;;6.15;76.70;100603.75;5010690;28;20429;-71
2023/01/14 06:58:01;;;;;;;22.45;7.10;;;7.00;87.60;;;6.13;76.77;100607.38;5008528;28;20412;-71
2023/01/14 07:00:29;;;;;;;19.98;6.45;;;7.00;87.60;;;6.13;76.59;100601.22;5009308;28;20441;-71
2023/01/14 07:02:58;;;;;;;17.98;6.00;;;7.00;87.50;;;6.12;77.17;100604.88;5009140;28;20448;-71
2023/01/14 07:05:27;;;;;;;20.90;6.55;;;7.00;88.10;;;6.10;77.46;100594.38;5005676;28;20416;-71
2023/01/14 07:08:07;;;;;;;20.63;6.55;;;7.00;88.00;;;6.05;77.43;100593.94;5008535;28;20913;-71
2023/01/14 07:10:42;;;;;;;21.07;5.37;;;6.90;88.20;;;6.07;76.77;100585.81;5008262;28;20397;-71
2023/01/14 07:13:25;;;;;;;21.95;5.25;;;6.90;87.70;;;6.07;76.55;100580.50;5008704;28;20411;-71
2023/01/14 07:15:57;;;;;;;20.60;5.87;;;6.90;87.60;;;6.05;76.78;100582.47;5008574;28;20428;-71
2023/01/14 07:18:31;;;;;;;20.08;5.68;;;6.90;87.80;;;6.06;76.93;100582.31;5008458;28;20922;-71
2023/01/14 07:21:06;;;;;;;21.50;5.75;;;6.90;87.50;;;6.07;76.73;100588.47;5006064;28;20417;-71
2023/01/14 07:23:43;;;;;;;20.23;5.73;;;6.90;87.50;;;6.06;76.76;100584.16;5008021;28;20942;-71
2023/01/14 07:26:17;;;;;;;21.48;6.32;;;6.90;87.70;;;6.05;76.93;100574.50;5008248;28;20444;-71
2023/01/14 07:28:47;;;;;;;19.27;5.95;;;6.90;87.90;;;6.04;76.58;100570.16;5008210;28;20408;-71
2023/01/14 07:31:16;;;;;;;20.80;5.93;;;6.90;87.70;;;6.04;77.13;100570.16;5007806;28;20407;-70
2023/01/14 07:33:44;;;;;;;23.35;6.30;;;6.90;87.80;;;6.03;77.02;100574.63;5008624;28;20408;-71
2023/01/14 07:36:14;;;;;;;19.88;6.22;;;6.90;87.70;;;6.04;77.34;100575.47;5003182;28;20436;-71
2023/01/14 07:38:43;;;;;;;20.00;5.70;;;6.90;87.90;;;6.06;76.71;100568.22;4999118;28;20420;-71
2023/01/14 07:41:12;;;;;;;21.42;5.85;;;6.90;87.50;;;6.05;77.00;100556.75;5001986;28;20444;-71
2023/01/14 07:43:40;;;;;;;19.75;6.07;;;6.90;87.80;;;6.01;77.25;100555.34;5006298;28;20636;-71
2023/01/14 07:46:09;;;;;;;19.52;6.03;;;6.90;88.00;;;5.99;77.11;100535.19;5007978;28;20409;-72
2023/01/14 07:48:40;;;;;;;18.17;5.38;;;6.80;88.30;;;5.98;77.48;100538.81;5008286;28;20445;-72
2023/01/14 07:51:09;;;;;;;24.25;5.88;;;6.80;88.40;;;5.98;76.72;100534.34;5007999;28;20495;-72
2023/01/14 07:53:39;;;;;;;22.73;5.65;;;6.90;87.90;;;5.97;77.14;100531.81;5004411;28;20904;-72
2023/01/14 07:56:08;;;;;;;22.38;5.50;;;6.80;88.10;;;5.94;76.99;100534.75;5007250;28;20433;-72
2023/01/14 07:58:37;;;;;;;20.88;5.80;;;6.80;88.00;;;5.95;77.11;100528.47;5007766;28;20416;-72
2023/01/14 08:01:06;;;;;;;24.55;8.93;;;6.80;87.80;;;5.95;76.84;100531.97;5008023;28;20780;-72
2023/01/14 08:03:36;;;;;;;28.23;9.75;;;6.80;87.60;;;5.95;77.16;100531.13;5008027;28;20436;-72
2023/01/14 08:06:07;;;;;;;22.58;7.78;;;6.80;88.00;;;5.95;76.75;100523.16;5007706;28;20412;-72
2023/01/14 08:08:37;;;;;;;22.50;6.63;;;6.80;87.60;;;5.96;76.75;100524.81;5008031;28;20404;-72
2023/01/14 08:11:06;;;;;;;19.63;6.97;;;6.80;87.60;;;5.95;76.39;100520.50;5007996;28;20404;-72
2023/01/14 08:13:34;;;;;;;17.60;5.90;;;6.90;87.70;;;5.95;76.53;100517.84;5008322;28;20409;-72
2023/01/14 08:16:04;;;;;;;20.13;5.57;;;6.80;87.70;;;5.97;75.64;100515.88;5007647;28;20473;-72
2023/01/14 08:18:34;;;;;;;20.63;6.83;;;6.80;86.80;;;5.99;75.55;100509.44;5007887;28;20399;-72
2023/01/14 08:21:06;;;;;;;17.37;5.00;;;6.80;86.60;;;5.98;75.17;100512.25;5007634;28;20415;-72
2023/01/14 08:23:35;;;;;;;18.77;4.80;;;6.90;86.10;;;6.02;74.88;100511.84;5007780;28;20785;-72
2023/01/14 08:26:09;;;;;;;18.13;5.20;;;6.90;85.60;;;6.03;74.66;100525.94;5008100;28;20401;-72
2023/01/14 08:28:39;;;;;;;18.65;5.18;;;6.80;85.70;;;6.05;75.00;100521.34;5007721;28;20761;-72
2023/01/14 08:31:11;;;;;;;17.75;4.95;;;6.80;85.30;;;6.03;74.97;100525.94;5007212;28;20417;-72
2023/01/14 08:33:41;;;;;;;14.70;5.23;;;6.90;85.60;;;6.02;75.71;100513.66;5008206;28;20435;-71
2023/01/14 08:36:13;;;;;;;16.67;5.00;;;6.90;86.00;;;6.01;75.81;100515.47;5008063;28;20436;-63
2023/01/14 08:38:45;;;;;;;16.75;5.03;;;6.90;86.40;;;6.02;75.62;100516.31;5007645;28;20408;-71
2023/01/14 08:41:17;;;;;;;15.63;4.70;;;6.90;86.00;;;6.02;76.46;100513.66;5009028;28;20421;-70
2023/01/14 08:43:49;;;;;;;16.27;5.00;;;6.80;87.00;;;5.95;76.89;100518.69;5011850;28;20424;-71
2023/01/14 08:46:18;;;;;;;16.38;4.50;;;6.80;87.70;;;5.96;77.26;100507.06;5011750;28;20419;-71
2023/01/14 08:48:47;;;;;;;13.38;4.40;;;6.80;87.70;;;5.95;76.95;100507.19;5011913;28;20404;-70
2023/01/14 08:51:15;;;;;;;18.73;5.20;;;6.80;88.00;;;5.96;77.42;100498.22;5011541;28;20412;-71
2023/01/14 08:53:43;;;;;;;15.45;4.50;;;6.80;88.30;;;5.94;77.55;100494.88;5011303;28;20484;-72
2023/01/14 08:56:15;;;;;;;12.95;4.10;;;6.80;88.40;;;5.91;77.28;100485.38;5011294;28;20431;-72
2023/01/14 08:58:46;;;;;;;16.45;4.88;;;6.80;88.50;;;5.90;77.06;100478.38;5011142;28;20444;-72
2023/01/14 09:01:14;;;;;;;16.42;4.75;;;6.70;87.80;;;5.94;76.58;100474.47;5011323;28;20412;-72
2023/01/14 09:03:45;;;;;;;13.47;4.13;;;6.80;88.00;;;5.93;77.34;100477.25;5011415;28;20453;-72
2023/01/14 09:06:17;;;;;;;15.10;4.45;;;6.80;88.00;;;5.91;77.15;100463.28;5011079;28;20440;-72
2023/01/14 09:17:18;;;;;;;16.45;4.22;;;6.80;88.40;;;5.92;76.30;100443.72;5010299;28;20425;-70
2023/01/14 09:19:50;;;;;;;17.70;4.67;;;6.80;87.30;;;5.91;76.54;100442.03;5011115;28;20409;-70
2023/01/14 09:22:25;;;;;;;13.52;3.63;;;6.70;87.00;;;5.92;76.25;100433.94;5010522;28;20416;-70
2023/01/14 09:24:54;;;;;;;14.50;4.28;;;6.80;87.30;;;5.93;76.31;100440.06;5010656;28;20405;-70
2023/01/14 09:27:25;;;;;;;14.00;4.47;;;6.80;87.20;;;5.94;75.83;100431.13;5010651;28;20404;-72
2023/01/14 09:29:55;;;;;;;15.27;4.10;;;6.80;86.90;;;5.95;76.81;100427.50;5010616;28;20413;-70
2023/01/14 09:32:24;;;;;;;14.88;4.30;;;6.80;87.40;;;5.96;77.39;100415.88;5010699;28;20475;-71
2023/01/14 09:34:52;;;;;;;15.38;4.20;;;6.80;88.10;;;5.98;76.95;100398.81;5010315;28;20901;-71
2023/01/14 09:37:24;;;;;;;15.60;3.95;;;6.80;87.90;;;5.99;76.32;100402.31;5010004;28;21075;-71
2023/01/14 09:39:52;;;;;;;15.60;4.22;;;6.90;87.00;;;5.98;76.22;100400.63;5010750;28;20503;-70
2023/01/14 09:42:29;;;;;;;14.68;4.25;;;6.80;87.20;;;6.01;75.94;100395.03;5010244;28;20993;-71
2023/01/14 09:45:10;;;;;;;14.25;3.75;;;6.90;86.70;;;6.05;76.17;100396.44;5010743;28;20409;-71
2023/01/14 09:47:40;;;;;;;14.40;4.68;;;6.90;86.80;;;6.06;76.78;100398.13;5010298;28;20499;-71
2023/01/14 09:50:16;;;;;;;14.48;4.40;;;6.90;87.30;;;6.09;76.58;100395.19;5010478;28;20409;-70
2023/01/14 09:53:05;;;;;;;13.52;4.07;;;6.90;87.10;;;6.06;76.96;100390.16;5010155;28;20445;-71
2023/01/14 09:55:40;;;;;;;13.80;4.50;;;6.90;86.90;;;6.10;76.77;100388.88;5029387;28;20421;-71
2023/01/14 09:58:19;;;;;;;14.13;4.20;;;7.00;87.40;;;6.16;76.83;100385.69;5029713;28;20764;-70
2023/01/14 10:01:07;;;;;;;14.77;4.10;;;7.00;87.30;;;6.14;76.68;100379.66;5029820;28;20407;-72
2023/01/14 10:03:44;;;;;;;16.38;4.53;;;7.00;87.30;;;6.14;76.94;100363.69;5029937;28;20442;-71
2023/01/14 10:06:16;;;;;;;13.30;4.30;;;7.00;87.40;;;6.12;77.14;100368.34;5029551;28;20446;-70
2023/01/14 10:08:51;;;;;;;14.23;3.72;;;7.00;87.80;;;6.18;76.66;100358.94;5029977;28;20404;-71
2023/01/14 10:11:20;;;;;;;13.63;4.03;;;7.00;87.20;;;6.15;76.84;100341.47;5029752;28;20407;-71
2023/01/14 10:14:00;;;;;;;14.88;3.88;;;7.00;87.50;;;6.17;76.48;100331.53;5029664;28;20406;-71
2023/01/14 10:16:40;;;;;;;16.33;4.35;;;7.00;87.20;;;6.15;75.59;100322.88;5029296;28;20426;-70
2023/01/14 10:19:18;;;;;;;12.15;3.92;;;7.00;86.60;;;6.16;75.20;100313.91;5029597;28;20399;-71
2023/01/14 10:21:51;;;;;;;13.05;4.13;;;7.10;86.50;;;6.18;76.47;100314.59;5029728;28;20410;-72
2023/01/14 10:24:21;;;;;;;13.57;4.05;;;7.00;87.00;;;6.19;76.65;100300.34;5029652;28;20403;-71
2023/01/14 10:26:51;;;;;;;15.93;4.60;;;7.10;87.30;;;6.17;76.33;100285.50;5029357;28;20399;-71
2023/01/14 10:29:24;;;;;;;16.20;4.60;;;7.10;86.90;;;6.17;75.91;100277.53;5029458;28;20407;-71
2023/01/14 10:31:58;;;;;;;13.73;4.25;;;7.10;86.90;;;6.15;76.46;100280.34;5029045;28;20411;-71
2023/01/14 10:34:36;;;;;;;16.90;5.60;;;7.00;87.40;;;6.17;76.90;100266.88;5029328;28;20402;-65
2023/01/14 10:37:06;;;;;;;16.10;4.30;;;7.00;87.20;;;6.19;76.10;100268.44;5007880;28;20418;-66
2023/01/14 10:39:35;;;;;;;14.65;4.30;;;7.10;86.80;;;6.19;77.68;100265.78;4989735;28;20767;-72
2023/01/14 10:42:05;;;;;;;14.10;4.00;;;7.00;88.10;;;6.18;76.29;100250.81;5008640;28;20553;-72
2023/01/14 10:44:38;;;;;;;12.00;3.90;;;7.00;87.10;;;6.20;77.69;100250.69;5008868;28;20634;-72
2023/01/14 10:47:10;;;;;;;14.98;4.22;;;7.10;88.50;;;6.20;77.10;100245.38;5005970;28;20409;-72
2023/01/14 10:49:46;;;;;;;14.85;4.20;;;7.10;88.00;;;6.20;77.11;100240.84;5001929;28;20413;-71
2023/01/14 10:52:27;;;;;;;14.68;4.13;;;7.10;87.80;;;6.21;77.57;100231.06;5009060;28;20467;-72
2023/01/14 10:55:01;;;;;;;14.20;4.07;;;7.10;88.30;;;6.19;77.33;100225.91;5023026;28;20399;-71
2023/01/14 10:57:34;;;;;;;13.27;3.90;;;7.10;88.00;;;6.20;78.16;100224.91;5014720;28;20507;-72
2023/01/14 11:00:08;;;;;;;16.20;4.00;;;7.00;88.90;;;6.22;78.43;100220.31;5009143;28;20407;-71
2023/01/14 11:02:44;;;;;;;14.98;4.75;;;7.00;89.00;;;6.21;78.66;100213.31;5008661;28;20412;-71
2023/01/14 11:05:27;;;;;;;13.63;4.40;;;7.10;89.00;;;6.16;78.50;100207.59;5008489;28;20397;-72
2023/01/14 11:08:00;;;;;;;16.80;4.23;;;7.00;89.50;;;6.18;78.95;100197.66;5008338;28;20405;-72
2023/01/14 11:10:31;;;;;;;13.85;4.40;;;7.00;90.00;;;6.13;80.11;100192.75;5008561;28;20790;-71